Time;durP1;ratioP1;P1;durP2;ratioP2;P2;SDS_P1;SDS_P2;PMS_P1;PMS_P2;Temp;Humidity;BMP_temperature;BMP_pressure;BME280_temperature;BME280_humidity;BME280_pressure;Samples;Min_cycle;Max_cycle;Signal;HPM_P1;HPM_P2
2022/07/17 00:02:05;;;;;;;;;;;;;;;;;;5011272;28;20367;-66
2022/07/17 00:04:31;;;;;;;;;;;;;;;;;;5011220;28;19932;-67
2022/07/17 00:06:57;;;;;;;;;;;;;;;;;;5011564;28;19918;-66
2022/07/17 00:09:23;;;;;;;;;;;;;;;;;;5011217;28;20389;-66
2022/07/17 00:11:48;;;;;;;;;;;;;;;;;;5011284;28;19910;-66
2022/07/17 00:14:14;;;;;;;;;;;;;;;;;;5011456;28;19909;-67
2022/07/17 00:16:40;;;;;;;;;;;;;;;;;;5010903;28;20381;-67
2022/07/17 00:19:06;;;;;;;;;;;;;;;;;;5011377;28;19910;-67
2022/07/17 00:21:32;;;;;;;;;;;;;;;;;;5010876;28;20343;-66
2022/07/17 00:23:58;;;;;;;;;;;;;;;;;;5011100;28;19910;-66
2022/07/17 00:26:24;;;;;;;;;;;;;;;;;;5011044;28;20275;-66
2022/07/17 00:28:50;;;;;;;;;;;;;;;;;;5010971;28;20000;-66
2022/07/17 00:31:16;;;;;;;;;;;;;;;;;;5010996;28;19909;-66
2022/07/17 00:33:44;;;;;;;;;;;;;;;;;;5010935;28;20005;-66
2022/07/17 00:36:10;;;;;;;;;;;;;;;;;;5011173;28;20000;-66
2022/07/17 00:38:36;;;;;;;;;;;;;;;;;;5010858;28;20397;-67
2022/07/17 00:41:01;;;;;;;;;;;;;;;;;;5011018;28;19917;-66
2022/07/17 00:43:27;;;;;;;;;;;;;;;;;;5010842;28;19920;-66
2022/07/17 00:45:53;;;;;;;;;;;;;;;;;;5010726;28;19909;-66
2022/07/17 00:48:19;;;;;;;;;;;;;;;;;;5011034;28;19917;-66
2022/07/17 00:50:45;;;;;;;;;;;;;;;;;;5010689;28;20310;-66
2022/07/17 00:53:11;;;;;;;;;;;;;;;;;;5010959;28;19916;-66
2022/07/17 00:55:37;;;;;;;;;;;;;;;;;;5010627;28;19996;-66
2022/07/17 00:58:03;;;;;;;;;;;;;;;;;;5010893;28;19917;-66
2022/07/17 01:00:28;;;;;;;;;;;;;;;;;;5010558;28;20435;-67
2022/07/17 01:02:54;;;;;;;;;;;;;;;;;;5010560;28;19914;-67
2022/07/17 01:05:20;;;;;;;;;;;;;;;;;;5010778;28;19910;-66
2022/07/17 01:07:46;;;;;;;;;;;;;;;;;;5010845;28;19910;-66
2022/07/17 01:10:12;;;;;;;;;;;;;;;;;;5010490;28;19940;-66
2022/07/17 01:12:38;;;;;;;;;;;;;;;;;;5010498;28;19944;-66
2022/07/17 01:15:04;;;;;;;;;;;;;;;;;;5010703;28;19910;-66
2022/07/17 01:17:30;;;;;;;;;;;;;;;;;;5010396;28;19949;-66
2022/07/17 01:19:55;;;;;;;;;;;;;;;;;;5010378;28;19916;-66
2022/07/17 01:22:21;;;;;;;;;;;;;;;;;;5010125;28;19966;-66
2022/07/17 01:24:47;;;;;;;;;;;;;;;;;;5010386;28;19914;-66
2022/07/17 01:27:13;;;;;;;;;;;;;;;;;;5010854;28;19992;-66
2022/07/17 01:29:39;;;;;;;;;;;;;;;;;;5012003;28;20367;-66
2022/07/17 01:32:05;;;;;;;;;;;;;;;;;;5013640;28;19999;-66
2022/07/17 01:34:32;;;;;;;;;;;11.50;99.90;;;;;;5013504;28;19909;-66
2022/07/17 01:36:58;;;;;;;;;;;11.40;99.90;;;;;;5013423;28;19913;-67
2022/07/17 01:39:55;;;;;;;;;;;;;;;;;;5013642;28;19909;-66
2022/07/17 01:42:11;;;;;;;;;;;;;;;;;;5013167;28;19913;-66
2022/07/17 01:44:37;;;;;;;;;;;;;;;;;;5013423;28;20421;-66
2022/07/17 01:47:02;;;;;;;;;;;;;;;;;;5013650;28;19910;-66
2022/07/17 01:49:28;;;;;;;;;;;11.00;99.90;;;;;;5013326;28;20352;-66
2022/07/17 01:51:54;;;;;;;;;;;11.20;99.90;;;;;;5013189;28;19916;-66
2022/07/17 01:54:19;;;;;;;;;;;11.10;99.90;;;;;;5013396;28;20016;-67
2022/07/17 01:56:45;;;;;;;;;;;11.10;99.90;;;;;;5013237;28;20015;-67
2022/07/17 01:59:10;;;;;;;;;;;;;;;;;;5013314;28;19910;-67
2022/07/17 02:01:36;;;;;;;;;;;;;;;;;;5013364;28;19996;-66
2022/07/17 02:04:02;;;;;;;;;;;;;;;;;;5013358;28;20287;-66
2022/07/17 02:06:28;;;;;;;;;;;;;;;;;;5013119;28;19914;-66
2022/07/17 02:08:54;;;;;;;;;;;;;;;;;;5013092;28;19910;-66
2022/07/17 02:11:20;;;;;;;;;;;;;;;;;;5013278;28;19916;-66
2022/07/17 02:13:46;;;;;;;;;;;;;;;;;;5013263;28;20315;-66
2022/07/17 02:16:12;;;;;;;;;;;;;;;;;;5012876;28;20341;-66
2022/07/17 02:18:37;;;;;;;;;;;;;;;;;;4995381;28;19963;-67
2022/07/17 02:21:03;;;;;;;;;;;;;;;;;;5012723;28;19921;-66
2022/07/17 02:23:29;;;;;;;;;;;;;;;;;;5013105;28;19914;-66
2022/07/17 02:25:55;;;;;;;;;;;;;;;;;;5013057;28;20004;-66
2022/07/17 02:28:21;;;;;;;;;;;;;;;;;;5012743;28;19954;-66
2022/07/17 02:30:47;;;;;;;;;;;;;;;;;;5012692;28;19910;-66
2022/07/17 02:33:13;;;;;;;;;;;;;;;;;;5012992;28;20004;-66
2022/07/17 02:35:39;;;;;;;;;;;;;;;;;;5012634;28;19916;-67
2022/07/17 02:38:04;;;;;;;;;;;;;;;;;;5012891;28;19909;-66
2022/07/17 02:40:30;;;;;;;;;;;;;;;;;;5012584;28;19910;-66
2022/07/17 02:42:56;;;;;;;;;;;;;;;;;;5012732;28;20012;-66
2022/07/17 02:45:24;;;;;;;;;;;;;;;;;;5012447;28;20401;-67
2022/07/17 02:47:50;;;;;;;;;;;;;;;;;;5012623;28;19910;-66
2022/07/17 02:50:16;;;;;;;;;;;;;;;;;;5012516;28;20001;-66
2022/07/17 02:52:43;;;;;;;;;;;;;;;;;;5012360;28;19914;-66
2022/07/17 02:55:09;;;;;;;;;;;;;;;;;;5012529;28;19910;-67
2022/07/17 02:57:35;;;;;;;;;;;;;;;;;;5012600;28;19917;-67
2022/07/17 03:00:01;;;;;;;;;;;;;;;;;;5012281;28;20322;-67
2022/07/17 03:02:27;;;;;;;;;;;;;;;;;;5012461;28;19920;-67
2022/07/17 03:04:53;;;;;;;;;;;;;;;;;;5012217;28;19996;-67
2022/07/17 03:07:18;;;;;;;;;;;;;;;;;;5012167;28;19970;-67
2022/07/17 03:09:44;;;;;;;;;;;;;;;;;;5012412;28;19913;-67
2022/07/17 03:12:11;;;;;;;;;;;;;;;;;;5012087;28;19971;-66
2022/07/17 03:14:37;;;;;;;;;;;;;;;;;;5012211;28;19910;-67
2022/07/17 03:17:02;;;;;;;;;;;;;;;;;;5012269;28;19909;-66
2022/07/17 03:19:28;;;;;;;;;;;;;;;;;;5011887;28;19959;-66
2022/07/17 03:21:54;;;;;;;;;;;;;;;;;;5011739;28;20014;-67
2022/07/17 03:24:20;;;;;;;;;;;;;;;;;;5011937;28;19910;-67
2022/07/17 03:26:46;;;;;;;;;;;;;;;;;;5011835;28;19978;-67
2022/07/17 03:29:12;;;;;;;;;;;;;;;;;;5012077;28;19913;-66
2022/07/17 03:31:38;;;;;;;;;;;;;;;;;;5012005;28;19917;-68
2022/07/17 03:34:04;;;;;;;;;;;;;;;;;;5012000;28;20391;-66
2022/07/17 03:36:30;;;;;;;;;;;;;;;;;;5012016;28;19972;-67
2022/07/17 03:38:55;;;;;;;;;;;;;;;;;;5011721;28;20372;-66
2022/07/17 03:41:21;;;;;;;;;;;;;;;;;;5011851;28;19909;-66
2022/07/17 03:43:47;;;;;;;;;;;;;;;;;;5011578;28;19917;-66
2022/07/17 03:46:13;;;;;;;;;;;;;;;;;;5011821;28;19910;-66
2022/07/17 03:48:39;;;;;;;;;;;;;;;;;;5011526;28;20012;-66
2022/07/17 03:51:05;;;;;;;;;;;;;;;;;;5011314;28;19917;-67
2022/07/17 03:53:31;;;;;;;;;;;;;;;;;;5011362;28;19909;-67
2022/07/17 03:55:57;;;;;;;;;;;;;;;;;;5011492;28;20414;-67
2022/07/17 03:58:22;;;;;;;;;;;;;;;;;;5011391;28;19909;-67
2022/07/17 04:00:48;;;;;;;;;;;;;;;;;;5011701;28;19913;-67
2022/07/17 04:03:14;;;;;;;;;;;;;;;;;;5011254;28;20352;-67
2022/07/17 04:05:40;;;;;;;;;;;;;;;;;;5011310;28;19910;-67
2022/07/17 04:08:06;;;;;;;;;;;;;;;;;;4993752;28;19910;-67
2022/07/17 04:10:32;;;;;;;;;;;;;;;;;;5011228;28;19910;-66
2022/07/17 04:12:58;;;;;;;;;;;;;;;;;;5011461;28;19914;-66
2022/07/17 04:18:09;;;;;;;;;;;;;;;;;;5010866;28;19909;-66
2022/07/17 04:20:35;;;;;;;;;;;;;;;;;;5010905;28;20360;-66
2022/07/17 04:23:01;;;;;;;;;;;;;;;;;;5011037;28;19910;-66
2022/07/17 04:25:27;;;;;;;;;;;;;;;;;;5011293;28;19910;-66
2022/07/17 04:27:53;;;;;;;;;;;;;;;;;;5010969;28;19910;-66
2022/07/17 04:30:19;;;;;;;;;;;;;;;;;;5011235;28;19916;-66
2022/07/17 04:32:45;;;;;;;;;;;;;;;;;;5010953;28;19932;-66
2022/07/17 04:35:10;;;;;;;;;;;;;;;;;;5011202;28;20008;-67
2022/07/17 04:37:36;;;;;;;;;;;;;;;;;;5010884;28;19909;-67
2022/07/17 04:40:02;;;;;;;;;;;;;;;;;;5010925;28;20276;-67
2022/07/17 04:42:28;;;;;;;;;;;;;;;;;;5011016;28;19968;-67
2022/07/17 04:44:54;;;;;;;;;;;;;;;;;;5011117;28;19909;-67
2022/07/17 04:47:20;;;;;;;;;;;;;;;;;;5010830;28;20299;-67
2022/07/17 04:49:45;;;;;;;;;;;17.10;99.90;;;;;;5010752;28;20047;-67
2022/07/17 04:52:11;;;;;;;;;;;17.40;99.90;;;;;;5010603;28;19909;-67
2022/07/17 04:54:37;;;;;;;;;;;;;;;;;;5010855;28;19916;-67
2022/07/17 04:57:02;;;;;;;;;;;19.30;99.90;;;;;;5010670;28;19909;-68
2022/07/17 04:59:28;;;;;;;;;;;20.20;99.90;;;;;;5010855;28;19921;-68
2022/07/17 05:01:53;;;;;;;;;;;20.70;99.90;;;;;;5010395;28;19914;-68
2022/07/17 05:04:19;;;;;;;;;;;21.00;99.90;;;;;;5012069;28;19910;-68
2022/07/17 05:06:44;;;;;;;;;;;21.70;99.30;;;;;;5014146;28;20444;-68
2022/07/17 05:09:09;;;;;;;;;;;21.30;99.20;;;;;;4996664;28;20317;-68
2022/07/17 05:11:36;;;;;;;;;;;21.40;98.60;;;;;;5014085;28;19949;-68
2022/07/17 05:14:02;;;;;;;;;;;21.70;96.10;;;;;;5014084;28;20377;-68
2022/07/17 05:16:28;;;;;;;;;;;21.40;95.20;;;;;;5014006;28;19914;-68
2022/07/17 05:18:53;;;;;;;;;;;20.80;97.10;;;;;;5013659;28;19932;-68
2022/07/17 05:21:19;;;;;;;;;;;19.60;98.90;;;;;;4992688;28;19925;-68
2022/07/17 05:23:44;;;;;;;;;;;18.90;99.90;;;;;;4994091;28;19910;-68
2022/07/17 05:26:10;;;;;;;;;;;18.10;99.90;;;;;;4994055;28;19963;-68
2022/07/17 05:28:35;;;;;;;;;;;18.10;99.90;;;;;;4994270;28;19910;-68
2022/07/17 05:31:01;;;;;;;;;;;18.80;99.90;;;;;;4994216;28;20316;-68
2022/07/17 05:33:27;;;;;;;;;;;19.50;99.90;;;;;;4992825;28;19910;-68
2022/07/17 05:35:52;;;;;;;;;;;20.10;99.60;;;;;;4994184;28;19910;-68
2022/07/17 05:38:18;;;;;;;;;;;21.30;98.00;;;;;;4992763;28;20468;-68
2022/07/17 05:40:43;;;;;;;;;;;22.20;95.60;;;;;;4994118;28;19918;-68
2022/07/17 05:43:09;;;;;;;;;;;22.90;93.80;;;;;;4993739;28;20422;-68
2022/07/17 05:45:34;;;;;;;;;;;23.30;92.80;;;;;;4993770;28;19910;-68
2022/07/17 05:48:00;;;;;;;;;;;23.70;90.90;;;;;;4993783;28;19955;-68
2022/07/17 05:50:25;;;;;;;;;;;23.90;90.40;;;;;;4993828;28;19910;-68
2022/07/17 05:52:51;;;;;;;;;;;24.40;88.20;;;;;;4993922;28;19909;-68
2022/07/17 05:55:16;;;;;;;;;;;24.60;86.00;;;;;;4993926;28;20386;-68
2022/07/17 05:57:42;;;;;;;;;;;25.00;84.00;;;;;;4993820;28;19913;-68
2022/07/17 06:00:08;;;;;;;;;;;25.20;84.10;;;;;;4993791;28;19920;-68
2022/07/17 06:02:33;;;;;;;;;;;25.50;82.40;;;;;;4993690;28;19914;-68
2022/07/17 06:04:59;;;;;;;;;;;25.80;81.80;;;;;;4993759;28;20271;-68
2022/07/17 06:07:24;;;;;;;;;;;26.40;78.10;;;;;;4993489;28;19917;-68
2022/07/17 06:09:49;;;;;;;;;;;26.20;78.20;;;;;;4993415;28;19917;-68
2022/07/17 06:12:15;;;;;;;;;;;25.20;78.30;;;;;;4993639;28;19909;-68
2022/07/17 06:14:40;;;;;;;;;;;25.60;80.50;;;;;;4992958;28;19931;-68
2022/07/17 06:17:06;;;;;;;;;;;25.30;79.40;;;;;;4993302;28;20001;-68
2022/07/17 06:19:31;;;;;;;;;;;25.10;78.50;;;;;;4993263;28;20395;-68
2022/07/17 06:21:57;;;;;;;;;;;24.60;79.10;;;;;;5004922;28;19925;-68
2022/07/17 06:24:22;;;;;;;;;;;24.80;80.50;;;;;;5012996;28;20011;-68
2022/07/17 06:26:48;;;;;;;;;;;26.10;77.90;;;;;;5012719;28;19909;-68
2022/07/17 06:29:13;;;;;;;;;;;26.60;74.90;;;;;;5012910;28;19909;-68
2022/07/17 06:31:39;;;;;;;;;;;26.40;75.50;;;;;;5012864;28;20419;-68
2022/07/17 06:34:04;;;;;;;;;;;26.50;74.20;;;;;;5012894;28;19910;-68
2022/07/17 06:36:30;;;;;;;;;;;26.50;73.50;;;;;;5012804;28;19955;-69
2022/07/17 06:38:55;;;;;;;;;;;26.80;71.60;;;;;;5012795;28;19917;-69
2022/07/17 06:41:21;;;;;;;;;;;26.30;72.80;;;;;;5012452;28;19964;-69
2022/07/17 06:43:46;;;;;;;;;;;25.50;74.20;;;;;;5012705;28;19914;-69
2022/07/17 06:46:11;;;;;;;;;;;25.20;74.80;;;;;;5012685;28;19941;-68
2022/07/17 06:48:37;;;;;;;;;;;25.80;74.30;;;;;;5012402;28;19920;-68
2022/07/17 06:51:02;;;;;;;;;;;26.20;74.70;;;;;;5012618;28;19954;-69
2022/07/17 06:53:28;;;;;;;;;;;25.80;74.50;;;;;;5012380;28;19916;-69
2022/07/17 06:55:53;;;;;;;;;;;26.10;74.80;;;;;;5012515;28;19910;-69
2022/07/17 06:58:19;;;;;;;;;;;27.40;70.60;;;;;;5012572;28;19910;-69
2022/07/17 07:00:44;;;;;;;;;;;26.90;70.90;;;;;;5012476;28;19910;-68
2022/07/17 07:03:10;;;;;;;;;;;26.50;72.60;;;;;;5012066;28;20321;-68
2022/07/17 07:05:36;;;;;;;;;;;28.20;69.40;;;;;;5012401;28;19909;-68
2022/07/17 07:08:01;;;;;;;;;;;27.80;69.60;;;;;;5012341;28;20280;-68
2022/07/17 07:10:27;;;;;;;;;;;27.50;68.60;;;;;;5012290;28;19909;-68
2022/07/17 07:12:53;;;;;;;;;;;27.30;69.20;;;;;;5012040;28;20398;-68
2022/07/17 07:15:18;;;;;;;;;;;28.50;67.50;;;;;;5012192;28;19913;-68
2022/07/17 07:17:44;;;;;;;;;;;28.60;66.10;;;;;;5011949;28;19910;-68
2022/07/17 07:20:10;;;;;;;;;;;28.40;65.90;;;;;;5011929;28;19958;-68
2022/07/17 07:22:36;;;;;;;;;;;29.40;64.70;;;;;;5011642;28;20012;-68
2022/07/17 07:25:02;;;;;;;;;;;28.80;64.00;;;;;;5012082;28;19910;-68
2022/07/17 07:27:28;;;;;;;;;;;28.80;64.10;;;;;;5010919;28;20349;-68
2022/07/17 07:29:53;;;;;;;;;;;29.50;63.20;;;;;;5011714;28;19948;-68
2022/07/17 07:32:19;;;;;;;;;;;28.60;62.80;;;;;;5011951;28;19909;-68
2022/07/17 07:34:44;;;;;;;;;;;28.50;63.00;;;;;;5011660;28;20419;-68
2022/07/17 07:37:09;;;;;;;;;;;28.30;63.20;;;;;;5011579;28;20287;-68
2022/07/17 07:39:35;;;;;;;;;;;28.20;64.30;;;;;;5011638;28;19914;-68
2022/07/17 07:42:01;;;;;;;;;;;28.20;63.20;;;;;;5011554;28;19920;-68
2022/07/17 07:44:26;;;;;;;;;;;28.80;61.70;;;;;;4994147;28;19909;-68
2022/07/17 07:46:52;;;;;;;;;;;28.30;61.70;;;;;;5011523;28;19959;-68
2022/07/17 07:49:17;;;;;;;;;;;28.10;63.10;;;;;;5011752;28;20278;-68
2022/07/17 07:51:43;;;;;;;;;;;27.70;63.60;;;;;;5011707;28;19909;-68
2022/07/17 07:54:08;;;;;;;;;;;28.50;62.50;;;;;;5011406;28;20427;-68
2022/07/17 07:56:34;;;;;;;;;;;28.30;61.30;;;;;;5011635;28;19910;-68
2022/07/17 07:59:00;;;;;;;;;;;28.20;60.60;;;;;;5011560;28;19909;-68
2022/07/17 08:01:25;;;;;;;;;;;29.10;60.50;;;;;;5011175;28;20393;-68
2022/07/17 08:03:51;;;;;;;;;;;28.50;60.10;;;;;;5011555;28;19910;-68
2022/07/17 08:06:16;;;;;;;;;;;29.00;58.80;;;;;;5011242;28;19960;-68
2022/07/17 08:08:42;;;;;;;;;;;29.30;58.90;;;;;;4993774;28;19996;-68
2022/07/17 08:11:07;;;;;;;;;;;29.50;58.00;;;;;;5011129;28;19920;-68
2022/07/17 08:13:33;;;;;;;;;;;30.30;56.90;;;;;;5011403;28;19909;-68
2022/07/17 08:15:58;;;;;;;;;;;29.70;55.50;;;;;;5011360;28;20394;-68
2022/07/17 08:18:25;;;;;;;;;;;29.60;56.30;;;;;;5011334;28;19917;-68
2022/07/17 08:20:51;;;;;;;;;;;30.40;55.80;;;;;;5011106;28;19968;-68
2022/07/17 08:23:16;;;;;;;;;;;30.40;55.20;;;;;;5010909;28;19952;-68
2022/07/17 08:25:43;;;;;;;;;;;29.40;55.50;;;;;;5010944;28;19933;-68
2022/07/17 08:28:09;;;;;;;;;;;29.10;57.10;;;;;;5011210;28;20271;-69
2022/07/17 08:30:35;;;;;;;;;;;29.10;56.00;;;;;;5011199;28;19965;-69
2022/07/17 08:33:02;;;;;;;;;;;29.10;56.60;;;;;;4993762;28;19909;-67
2022/07/17 08:35:28;;;;;;;;;;;29.40;55.70;;;;;;5010862;28;19933;-67
2022/07/17 08:37:53;;;;;;;;;;;28.40;57.30;;;;;;5011860;28;19909;-69
2022/07/17 08:40:21;;;;;;;;;;;29.40;56.20;;;;;;5014636;28;19963;-69
2022/07/17 08:42:47;;;;;;;;;;;30.00;57.00;;;;;;5014222;28;19913;-66
2022/07/17 08:45:12;;;;;;;;;;;30.60;55.20;;;;;;5014233;28;19913;-66
2022/07/17 08:47:38;;;;;;;;;;;30.00;55.20;;;;;;5014273;28;20004;-67
2022/07/17 08:50:04;;;;;;;;;;;29.40;55.80;;;;;;5014500;28;19954;-69
2022/07/17 08:52:30;;;;;;;;;;;29.00;56.10;;;;;;5014441;28;19948;-69
2022/07/17 08:54:56;;;;;;;;;;;30.30;56.80;;;;;;5014072;28;19916;-69
2022/07/17 08:57:22;;;;;;;;;;;29.50;54.90;;;;;;5014361;28;19917;-68
2022/07/17 08:59:48;;;;;;;;;;;29.60;54.80;;;;;;5014088;28;19913;-68
2022/07/17 09:02:13;;;;;;;;;;;29.40;53.60;;;;;;5013953;28;20016;-68
2022/07/17 09:04:39;;;;;;;;;;;29.00;54.90;;;;;;5014021;28;19910;-68
2022/07/17 09:07:05;;;;;;;;;;;30.10;53.90;;;;;;5014203;28;20394;-66
2022/07/17 09:09:30;;;;;;;;;;;30.70;53.50;;;;;;4996756;28;19917;-66
2022/07/17 09:11:58;;;;;;;;;;;30.40;53.10;;;;;;5013877;28;19916;-66
2022/07/17 09:14:24;;;;;;;;;;;29.70;53.80;;;;;;4996301;28;19916;-66
2022/07/17 09:16:50;;;;;;;;;;;29.90;53.70;;;;;;5013790;28;19909;-66
2022/07/17 09:19:32;;;;;;;;;;;30.40;54.80;;;;;;5014054;28;20363;-68
2022/07/17 09:22:05;;;;;;;;;;;30.60;51.70;;;;;;5013561;28;20314;-65
2022/07/17 09:24:48;;;;;;;;;;;30.10;52.60;;;;;;5014071;28;19914;-66
2022/07/17 09:27:27;;;;;;;;;;;30.00;52.80;;;;;;5013641;28;19910;-66
2022/07/17 09:29:54;;;;;;;;;;;30.40;52.00;;;;;;5013599;28;19909;-66
2022/07/17 09:32:20;;;;;;;;;;;31.20;51.60;;;;;;5013836;28;20282;-66
2022/07/17 09:34:47;;;;;;;;;;;30.20;51.60;;;;;;5013553;28;20000;-66
2022/07/17 09:37:12;;;;;;;;;;;30.60;52.40;;;;;;5013766;28;19916;-67
2022/07/17 09:39:39;;;;;;;;;;;30.40;52.30;;;;;;5013727;28;19913;-66
2022/07/17 09:42:05;;;;;;;;;;;30.60;51.30;;;;;;5013814;28;20363;-66
2022/07/17 09:44:30;;;;;;;;;;;30.50;50.20;;;;;;5013414;28;19916;-66
2022/07/17 09:46:56;;;;;;;;;;;31.10;50.20;;;;;;5013612;28;19917;-66
2022/07/17 09:49:25;;;;;;;;;;;30.10;50.50;;;;;;5012883;28;20260;-66
2022/07/17 09:51:50;;;;;;;;;;;30.00;51.10;;;;;;5013478;28;19909;-66
2022/07/17 09:54:20;;;;;;;;;;;30.80;50.50;;;;;;5013227;28;20364;-65
2022/07/17 09:56:47;;;;;;;;;;;30.80;49.80;;;;;;5013189;28;19952;-65
2022/07/17 09:59:12;;;;;;;;;;;30.70;51.30;;;;;;5013409;28;19917;-66
2022/07/17 10:01:39;;;;;;;;;;;31.20;51.10;;;;;;5013301;28;19914;-66
2022/07/17 10:04:05;;;;;;;;;;;31.20;49.60;;;;;;5013028;28;19916;-65
2022/07/17 10:06:30;;;;;;;;;;;31.10;49.70;;;;;;5013240;28;19914;-66
2022/07/17 10:08:56;;;;;;;;;;;31.10;49.60;;;;;;5012951;28;20333;-66
2022/07/17 10:11:23;;;;;;;;;;;30.10;49.60;;;;;;5013165;28;19943;-65
2022/07/17 10:13:49;;;;;;;;;;;30.40;50.10;;;;;;5013150;28;19963;-66
2022/07/17 10:16:24;;;;;;;;;;;30.80;49.60;;;;;;5013139;28;19913;-66
2022/07/17 10:18:52;;;;;;;;;;;30.30;50.50;;;;;;5013123;28;19917;-66
2022/07/17 10:21:18;;;;;;;;;;;29.80;50.80;;;;;;5012567;28;19921;-65
2022/07/17 10:23:48;;;;;;;;;;;29.60;51.00;;;;;;5012963;28;19918;-65
2022/07/17 10:26:13;;;;;;;;;;;29.90;50.40;;;;;;5013019;28;19910;-65
2022/07/17 10:28:43;;;;;;;;;;;30.10;50.10;;;;;;5012909;28;20371;-66
2022/07/17 10:31:09;;;;;;;;;;;29.20;49.90;;;;;;5012888;28;20373;-65
2022/07/17 10:33:35;;;;;;;;;;;29.80;51.10;;;;;;5012876;28;19909;-65
2022/07/17 10:36:01;;;;;;;;;;;30.10;49.90;;;;;;5012566;28;19917;-66
2022/07/17 10:38:27;;;;;;;;;;;30.30;50.90;;;;;;5012586;28;20279;-66
2022/07/17 10:41:00;;;;;;;;;;;30.20;49.40;;;;;;5012581;28;19909;-65
2022/07/17 10:43:26;;;;;;;;;;;29.70;50.30;;;;;;5012697;28;19963;-65
2022/07/17 10:45:52;;;;;;;;;;;29.60;49.30;;;;;;5012389;28;19910;-65
2022/07/17 10:48:19;;;;;;;;;;;30.00;49.30;;;;;;5012408;28;19910;-66
2022/07/17 10:50:46;;;;;;;;;;;30.00;50.80;;;;;;5012615;28;20375;-65
2022/07/17 10:53:17;;;;;;;;;;;30.10;49.00;;;;;;4994747;28;19917;-65
2022/07/17 10:55:45;;;;;;;;;;;29.90;50.00;;;;;;5012530;28;19948;-65
2022/07/17 10:58:18;;;;;;;;;;;29.60;50.80;;;;;;5012260;28;20287;-65
2022/07/17 11:00:44;;;;;;;;;;;28.80;50.50;;;;;;5012173;28;20008;-66
2022/07/17 11:03:11;;;;;;;;;;;28.80;51.60;;;;;;5011499;28;20000;-65
2022/07/17 11:05:37;;;;;;;;;;;28.40;52.20;;;;;;5012387;28;20032;-65
2022/07/17 11:08:06;;;;;;;;;;;28.10;53.10;;;;;;4994566;28;20395;-65
2022/07/17 11:10:31;;;;;;;;;;;28.10;52.80;;;;;;5012330;28;20383;-65
2022/07/17 11:13:07;;;;;;;;;;;27.80;53.60;;;;;;5012011;28;19909;-65
2022/07/17 11:15:48;;;;;;;;;;;27.50;54.00;;;;;;5011967;28;19959;-65
2022/07/17 11:18:16;;;;;;;;;;;27.00;53.40;;;;;;5011945;28;19913;-65
2022/07/17 11:20:50;;;;;;;;;;;27.20;55.40;;;;;;5011580;28;19913;-65
2022/07/17 11:23:15;;;;;;;;;;;27.50;53.40;;;;;;5011830;28;19913;-65
2022/07/17 11:26:01;;;;;;;;;;;27.10;54.00;;;;;;5012113;28;19910;-65
2022/07/17 11:28:27;;;;;;;;;;;27.50;54.50;;;;;;5011644;28;20421;-65
2022/07/17 11:30:53;;;;;;;;;;;27.90;53.60;;;;;;5012067;28;20398;-65
2022/07/17 11:33:18;;;;;;;;;;;28.40;54.90;;;;;;5011972;28;19909;-65
2022/07/17 11:35:46;;;;;;;;;;;28.40;53.60;;;;;;4994223;28;20367;-65
2022/07/17 11:38:12;;;;;;;;;;;28.30;52.70;;;;;;5011527;28;19909;-65
2022/07/17 11:40:45;;;;;;;;;;;27.40;52.80;;;;;;5011645;28;19959;-65
2022/07/17 11:43:11;;;;;;;;;;;27.60;54.70;;;;;;5011785;28;20008;-65
2022/07/17 11:45:36;;;;;;;;;;;27.20;54.00;;;;;;5011567;28;20399;-65
2022/07/17 11:48:02;;;;;;;;;;;26.90;54.10;;;;;;5011754;28;19910;-65
2022/07/17 11:50:28;;;;;;;;;;;27.00;53.60;;;;;;5011566;28;20375;-65
2022/07/17 11:52:53;;;;;;;;;;;27.30;53.50;;;;;;4993908;28;19909;-65
2022/07/17 11:55:19;;;;;;;;;;;27.20;53.70;;;;;;5011541;28;19909;-65
2022/07/17 11:57:46;;;;;;;;;;;27.40;53.60;;;;;;5011306;28;20368;-66
2022/07/17 12:00:12;;;;;;;;;;;27.50;52.00;;;;;;5011548;28;20423;-65
2022/07/17 12:02:37;;;;;;;;;;;27.20;52.00;;;;;;5011448;28;19920;-65
2022/07/17 12:05:03;;;;;;;;;;;27.40;52.40;;;;;;4993723;28;20291;-65
2022/07/17 12:07:48;;;;;;;;;;;27.40;52.20;;;;;;5011217;28;19916;-65
2022/07/17 12:10:16;;;;;;;;;;;27.50;53.10;;;;;;5011098;28;19914;-65
2022/07/17 12:12:52;;;;;;;;;;;26.60;52.80;;;;;;5010995;28;19910;-65
2022/07/17 12:15:17;;;;;;;;;;;26.30;53.20;;;;;;5011401;28;19960;-65
2022/07/17 12:17:43;;;;;;;;;;;26.30;53.90;;;;;;5011076;28;20280;-65
2022/07/17 12:20:09;;;;;;;;;;;26.70;53.20;;;;;;5011053;28;19916;-65
2022/07/17 12:22:50;;;;;;;;;;;27.10;53.10;;;;;;5010828;28;19922;-65
2022/07/17 12:25:25;;;;;;;;;;;27.40;52.60;;;;;;5010283;28;21501;-65
2022/07/17 12:27:50;;;;;;;;;;;27.90;52.70;;;;;;5011182;28;19916;-65
2022/07/17 12:30:16;;;;;;;;;;;27.90;51.20;;;;;;5010879;28;20282;-65
2022/07/17 12:32:42;;;;;;;;;;;27.70;51.30;;;;;;5011184;28;19913;-65
2022/07/17 12:35:07;;;;;;;;;;;27.30;51.60;;;;;;5011126;28;20356;-65
2022/07/17 12:37:33;;;;;;;;;;;27.00;51.30;;;;;;5010844;28;19910;-65
2022/07/17 12:39:59;;;;;;;;;;;26.80;52.30;;;;;;5011036;28;19910;-65
2022/07/17 12:42:24;;;;;;;;;;;27.10;52.40;;;;;;5010970;28;19920;-65
2022/07/17 12:44:50;;;;;;;;;;;27.70;53.30;;;;;;5010775;28;20295;-65
2022/07/17 12:47:15;;;;;;;;;;;27.90;51.80;;;;;;5010936;28;19909;-65
2022/07/17 12:49:41;;;;;;;;;;;28.20;51.80;;;;;;5010910;28;20417;-65
2022/07/17 12:52:06;;;;;;;;;;;27.70;50.40;;;;;;5010923;28;20012;-65
2022/07/17 12:54:32;;;;;;;;;;;27.60;51.80;;;;;;5010864;28;19909;-65
2022/07/17 12:56:58;;;;;;;;;;;28.00;51.30;;;;;;5010595;28;19913;-65
2022/07/17 12:59:23;;;;;;;;;;;28.00;49.70;;;;;;5010479;28;19952;-65
2022/07/17 13:01:49;;;;;;;;;;;28.00;49.60;;;;;;5010697;28;19916;-65
2022/07/17 13:04:15;;;;;;;;;;;27.90;49.40;;;;;;5010752;28;19913;-65
2022/07/17 13:06:40;;;;;;;;;;;28.00;50.70;;;;;;5010667;28;19963;-66
2022/07/17 13:09:06;;;;;;;;;;;27.90;51.10;;;;;;5010410;28;20353;-66
2022/07/17 13:11:31;;;;;;;;;;;27.30;51.10;;;;;;5010427;28;19910;-66
2022/07/17 13:13:57;;;;;;;;;;;27.20;52.10;;;;;;5010352;28;19910;-66
2022/07/17 13:16:23;;;;;;;;;;;27.40;52.80;;;;;;5010657;28;19910;-65
2022/07/17 13:18:49;;;;;;;;;;;27.50;52.60;;;;;;5010629;28;19916;-66
2022/07/17 13:21:14;;;;;;;;;;;27.90;51.80;;;;;;5010257;28;19928;-66
2022/07/17 13:23:40;;;;;;;;;;;27.30;50.70;;;;;;5010474;28;19924;-66
2022/07/17 13:26:06;;;;;;;;;;;27.20;51.60;;;;;;5012881;28;19910;-66
2022/07/17 13:28:31;;;;;;;;;;;27.40;51.10;;;;;;5013823;28;19917;-66
2022/07/17 13:30:57;;;;;;;;;;;27.60;51.90;;;;;;5013918;28;19954;-66
2022/07/17 13:33:23;;;;;;;;;;;27.90;51.50;;;;;;5013558;28;19909;-66
2022/07/17 13:35:48;;;;;;;;;;;27.90;51.00;;;;;;4995906;28;20014;-66
2022/07/17 13:38:14;;;;;;;;;;;28.00;51.40;;;;;;5013734;28;19935;-66
2022/07/17 13:40:40;;;;;;;;;;;27.70;50.60;;;;;;4996337;28;19949;-66
2022/07/17 13:43:05;;;;;;;;;;;27.90;50.80;;;;;;5013234;28;19914;-66
2022/07/17 13:45:31;;;;;;;;;;;27.90;50.40;;;;;;5013668;28;19967;-65
2022/07/17 13:47:57;;;;;;;;;;;28.00;50.60;;;;;;4995958;28;19960;-66
2022/07/17 13:50:23;;;;;;;;;;;28.00;49.70;;;;;;5013286;28;19956;-66
2022/07/17 13:52:48;;;;;;;;;;;27.60;50.50;;;;;;5013200;28;19998;-65
2022/07/17 13:55:14;;;;;;;;;;;27.40;50.20;;;;;;5013248;28;19909;-65
2022/07/17 13:57:39;;;;;;;;;;;27.20;49.50;;;;;;5013137;28;19917;-66
2022/07/17 14:00:06;;;;;;;;;;;27.10;50.10;;;;;;4995680;28;19916;-66
2022/07/17 14:02:31;;;;;;;;;;;27.40;50.40;;;;;;5013318;28;19913;-66
2022/07/17 14:04:56;;;;;;;;;;;27.50;51.90;;;;;;5013225;28;19917;-66
2022/07/17 14:07:22;;;;;;;;;;;27.30;50.90;;;;;;5013285;28;19910;-66
2022/07/17 14:09:47;;;;;;;;;;;27.40;50.30;;;;;;5013020;28;19914;-67
2022/07/17 14:12:13;;;;;;;;;;;27.80;51.40;;;;;;5012994;28;20390;-67
2022/07/17 14:14:38;;;;;;;;;;;27.60;49.50;;;;;;5013192;28;19917;-67
2022/07/17 14:17:04;;;;;;;;;;;27.50;50.20;;;;;;5012907;28;19910;-66
2022/07/17 14:19:29;;;;;;;;;;;27.60;50.70;;;;;;5012840;28;19916;-66
2022/07/17 14:21:55;;;;;;;;;;;27.70;51.20;;;;;;5012749;28;19925;-68
2022/07/17 14:24:20;;;;;;;;;;;27.50;51.00;;;;;;5012886;28;20004;-66
2022/07/17 14:26:48;;;;;;;;;;;27.50;49.80;;;;;;5013001;28;19958;-66
2022/07/17 14:29:14;;;;;;;;;;;27.20;50.00;;;;;;5013045;28;19909;-66
2022/07/17 14:31:39;;;;;;;;;;;27.20;49.70;;;;;;5012660;28;20020;-65
2022/07/17 14:34:05;;;;;;;;;;;27.50;49.90;;;;;;5012705;28;19993;-65
2022/07/17 14:36:30;;;;;;;;;;;27.60;49.60;;;;;;5012340;28;19945;-65
2022/07/17 14:38:56;;;;;;;;;;;27.10;49.20;;;;;;5012577;28;19909;-65
2022/07/17 14:41:21;;;;;;;;;;;27.50;49.80;;;;;;5012495;28;19909;-65
2022/07/17 14:43:47;;;;;;;;;;;27.30;49.50;;;;;;5012603;28;19968;-66
2022/07/17 14:46:12;;;;;;;;;;;27.50;49.60;;;;;;5012442;28;20352;-66
2022/07/17 14:48:38;;;;;;;;;;;27.30;49.30;;;;;;5012363;28;19913;-66
2022/07/17 14:51:03;;;;;;;;;;;27.50;49.70;;;;;;5012395;28;19909;-66
2022/07/17 14:53:29;;;;;;;;;;;27.30;49.90;;;;;;5012309;28;19917;-66
2022/07/17 14:55:54;;;;;;;;;;;27.40;49.30;;;;;;5012359;28;19917;-66